createdAt,value
2019-03-26T00:01:08.719Z,58.73
2019-03-26T00:02:16.993Z,58.57
2019-03-26T00:03:24.865Z,58.60
2019-03-26T00:04:33.152Z,58.60
2019-03-26T00:05:41.295Z,58.58
2019-03-26T00:06:49.192Z,58.57
2019-03-26T00:07:57.101Z,58.43
2019-03-26T00:09:07.925Z,58.35
2019-03-26T00:10:15.732Z,58.40
2019-03-26T00:11:23.938Z,58.35
2019-03-26T00:12:32.050Z,58.05
2019-03-26T00:13:40.125Z,57.77
2019-03-26T00:14:48.124Z,57.63
2019-03-26T00:15:55.983Z,57.33
2019-03-26T00:17:04.115Z,56.92
2019-03-26T00:18:12.203Z,56.66
2019-03-26T00:19:20.700Z,56.34
2019-03-26T00:20:28.477Z,56.24
2019-03-26T00:21:36.623Z,55.97
2019-03-26T00:22:44.809Z,55.99
2019-03-26T00:23:52.843Z,55.93
2019-03-26T00:25:01.125Z,55.78
2019-03-26T00:26:09.121Z,55.62
2019-03-26T00:27:17.181Z,55.68
2019-03-26T00:28:25.386Z,55.72
2019-03-26T00:29:33.277Z,55.56
2019-03-26T00:30:41.479Z,55.64
2019-03-26T00:31:49.780Z,55.39
2019-03-26T00:32:57.646Z,55.32
2019-03-26T00:34:18.402Z,55.30
2019-03-26T00:35:15.478Z,55.08
2019-03-26T00:36:23.442Z,55.16
2019-03-26T00:37:31.696Z,55.44
2019-03-26T00:38:39.852Z,55.56
2019-03-26T00:39:47.993Z,55.50
2019-03-26T00:40:55.833Z,55.72
2019-03-26T00:42:03.828Z,55.69
2019-03-26T00:43:11.849Z,55.77
2019-03-26T00:44:19.867Z,55.81
2019-03-26T00:45:27.851Z,55.97
2019-03-26T00:46:36.054Z,56.11
2019-03-26T00:47:44.161Z,56.20
2019-03-26T00:48:51.895Z,56.08
2019-03-26T00:49:59.932Z,56.14
2019-03-26T00:51:07.916Z,56.23
2019-03-26T00:52:15.894Z,56.29
2019-03-26T00:53:23.966Z,56.31
2019-03-26T00:54:31.809Z,56.40
2019-03-26T00:55:39.848Z,56.11
2019-03-26T00:56:47.767Z,56.22
2019-03-26T00:57:55.901Z,56.16
2019-03-26T00:59:03.988Z,56.09
2019-03-26T01:00:13.521Z,56.10
2019-03-26T01:01:21.615Z,56.01
2019-03-26T01:02:29.608Z,56.29
2019-03-26T01:03:37.499Z,56.35
2019-03-26T01:04:45.600Z,56.18
2019-03-26T01:05:53.506Z,56.14
2019-03-26T01:07:01.620Z,56.31
2019-03-26T01:08:09.832Z,56.46
2019-03-26T01:09:17.828Z,56.23
2019-03-26T01:10:29.442Z,56.56
2019-03-26T01:11:38.376Z,56.80
2019-03-26T01:12:46.375Z,56.96
2019-03-26T01:13:54.259Z,56.95
2019-03-26T01:15:02.481Z,57.20
2019-03-26T01:16:10.535Z,57.33
2019-03-26T01:17:18.571Z,57.42
2019-03-26T01:18:26.314Z,57.49
2019-03-26T01:19:34.359Z,57.50
2019-03-26T01:20:42.485Z,57.60
2019-03-26T01:21:50.866Z,57.49
2019-03-26T01:22:58.913Z,57.49
2019-03-26T01:24:07.036Z,57.66
2019-03-26T01:25:15.164Z,57.72
2019-03-26T01:26:23.144Z,57.83
2019-03-26T01:27:31.350Z,57.79
2019-03-26T01:28:39.308Z,57.92
2019-03-26T01:29:47.593Z,57.85
2019-03-26T01:30:55.613Z,58.04
2019-03-26T01:32:03.481Z,57.96
2019-03-26T01:33:11.611Z,57.99
2019-03-26T01:34:19.372Z,58.06
2019-03-26T01:35:27.189Z,58.19
2019-03-26T01:36:35.211Z,58.36
2019-03-26T01:37:42.917Z,58.43
2019-03-26T01:38:50.854Z,58.40
2019-03-26T01:39:58.984Z,58.40
2019-03-26T01:41:06.894Z,58.34
2019-03-26T01:42:15.166Z,58.27
2019-03-26T01:43:23.228Z,58.24
2019-03-26T01:44:31.238Z,58.35
2019-03-26T01:45:39.435Z,58.41
2019-03-26T01:46:47.567Z,58.45
2019-03-26T01:47:55.569Z,58.18
2019-03-26T01:49:03.601Z,58.27
2019-03-26T01:50:12.006Z,58.32
2019-03-26T01:51:20.155Z,58.39
2019-03-26T01:52:28.223Z,58.58
2019-03-26T01:53:36.347Z,58.59
2019-03-26T01:54:44.414Z,58.85
2019-03-26T01:55:52.580Z,58.99
2019-03-26T01:57:00.744Z,58.96
2019-03-26T01:58:08.856Z,59.03
2019-03-26T01:59:16.632Z,59.13
2019-03-26T02:00:24.941Z,59.20
2019-03-26T02:01:32.924Z,59.33
2019-03-26T02:02:40.824Z,59.35
2019-03-26T02:03:48.764Z,59.42
2019-03-26T02:05:00.219Z,59.50
2019-03-26T02:06:06.913Z,59.50
2019-03-26T02:07:14.949Z,59.53
2019-03-26T02:08:22.939Z,59.62
2019-03-26T02:09:31.399Z,59.69
2019-03-26T02:10:39.521Z,59.63
2019-03-26T02:11:47.408Z,59.51
2019-03-26T02:12:55.447Z,59.67
2019-03-26T02:14:03.425Z,59.50
2019-03-26T02:15:15.818Z,59.48
2019-03-26T02:16:23.689Z,59.42
2019-03-26T02:17:31.561Z,59.29
2019-03-26T02:18:39.682Z,59.28
2019-03-26T02:19:47.977Z,59.07
2019-03-26T02:20:55.859Z,59.01
2019-03-26T02:22:03.967Z,58.88
2019-03-26T02:23:11.841Z,58.87
2019-03-26T02:24:19.623Z,58.90
2019-03-26T02:25:27.907Z,58.77
2019-03-26T02:26:35.865Z,58.75
2019-03-26T02:27:43.623Z,58.76
2019-03-26T02:28:51.561Z,58.76
2019-03-26T02:29:59.419Z,58.66
2019-03-26T02:31:07.539Z,58.71
2019-03-26T02:32:15.627Z,58.64
2019-03-26T02:33:23.541Z,58.51
2019-03-26T02:34:31.627Z,58.60
2019-03-26T02:35:39.877Z,58.54
2019-03-26T02:36:48.153Z,58.46
2019-03-26T02:37:56.840Z,58.40
2019-03-26T02:39:06.676Z,58.35
2019-03-26T02:40:14.591Z,58.30
2019-03-26T02:41:22.768Z,58.29
2019-03-26T02:42:30.604Z,58.16
2019-03-26T02:43:39.149Z,58.17
2019-03-26T02:44:47.232Z,58.06
2019-03-26T02:45:54.984Z,58.15
2019-03-26T02:47:03.250Z,58.03
2019-03-26T02:48:11.210Z,58.01
2019-03-26T02:49:19.220Z,58.01
2019-03-26T02:50:27.231Z,58.14
2019-03-26T02:51:35.286Z,58.03
2019-03-26T02:52:43.314Z,57.98
2019-03-26T02:53:51.350Z,57.99
2019-03-26T02:54:59.364Z,57.89
2019-03-26T02:56:07.302Z,57.94
2019-03-26T02:57:15.199Z,57.89
2019-03-26T02:58:22.960Z,57.91
2019-03-26T02:59:30.986Z,57.88
2019-03-26T03:00:38.879Z,57.81
2019-03-26T03:01:46.967Z,57.75
2019-03-26T03:02:55.059Z,57.71
2019-03-26T03:04:03.312Z,57.92
2019-03-26T03:05:11.457Z,57.85
2019-03-26T03:06:19.367Z,57.87
2019-03-26T03:07:27.241Z,57.88
2019-03-26T03:08:35.101Z,57.94
2019-03-26T03:09:43.231Z,57.97
2019-03-26T03:10:51.250Z,58.15
2019-03-26T03:11:59.546Z,58.17
2019-03-26T03:13:07.521Z,58.17
2019-03-26T03:14:15.425Z,58.18
2019-03-26T03:15:23.418Z,58.18
2019-03-26T03:16:31.405Z,58.12
2019-03-26T03:17:39.609Z,58.02
2019-03-26T03:18:47.903Z,58.18
2019-03-26T03:19:55.866Z,58.16
2019-03-26T03:21:04.194Z,58.13
2019-03-26T03:22:12.191Z,58.18
2019-03-26T03:23:20.293Z,58.05
2019-03-26T03:24:28.406Z,58.09
2019-03-26T03:25:36.403Z,58.29
2019-03-26T03:26:44.554Z,57.90
2019-03-26T03:27:52.717Z,57.94
2019-03-26T03:29:00.614Z,58.11
2019-03-26T03:30:10.473Z,58.16
2019-03-26T03:31:18.414Z,58.11
2019-03-26T03:32:26.169Z,58.07
2019-03-26T03:33:34.049Z,58.17
2019-03-26T03:34:42.098Z,58.26
2019-03-26T03:35:52.459Z,58.33
2019-03-26T03:37:00.014Z,58.21
2019-03-26T03:38:08.038Z,58.06
2019-03-26T03:39:16.000Z,58.11
2019-03-26T03:40:24.048Z,58.08
2019-03-26T03:41:32.121Z,58.09
2019-03-26T03:42:40.193Z,58.04
2019-03-26T03:43:48.125Z,58.15
2019-03-26T03:44:55.954Z,58.12
2019-03-26T03:46:05.144Z,58.24
2019-03-26T03:47:16.540Z,58.11
2019-03-26T03:48:26.003Z,58.03
2019-03-26T03:49:35.170Z,58.06
2019-03-26T03:50:46.011Z,58.04
2019-03-26T03:51:58.523Z,57.91
2019-03-26T03:53:07.832Z,57.82
2019-03-26T03:54:16.701Z,57.96
2019-03-26T03:55:25.097Z,58.05
2019-03-26T03:56:35.446Z,57.97
2019-03-26T03:57:45.194Z,58.10
2019-03-26T03:58:53.758Z,58.11
2019-03-26T04:00:03.803Z,57.97
2019-03-26T04:01:11.878Z,57.99
2019-03-26T04:02:19.520Z,58.09
2019-03-26T04:03:27.570Z,58.11
2019-03-26T04:04:35.499Z,58.08
2019-03-26T04:05:43.399Z,58.13
2019-03-26T04:06:51.952Z,58.32
2019-03-26T04:08:00.966Z,58.29
2019-03-26T04:09:08.969Z,58.31
2019-03-26T04:10:16.963Z,58.24
2019-03-26T04:11:24.800Z,58.22
2019-03-26T04:12:32.823Z,58.28
2019-03-26T04:13:41.157Z,58.20
2019-03-26T04:14:49.201Z,58.25
2019-03-26T04:15:57.131Z,58.25
2019-03-26T04:17:05.172Z,58.19
2019-03-26T04:18:13.214Z,58.00
2019-03-26T04:19:21.313Z,58.13
2019-03-26T04:20:29.619Z,58.19
2019-03-26T04:21:37.570Z,58.27
2019-03-26T04:22:45.434Z,58.10
2019-03-26T04:23:53.396Z,58.15
2019-03-26T04:25:01.352Z,58.11
2019-03-26T04:26:09.403Z,58.01
2019-03-26T04:27:17.383Z,58.04
2019-03-26T04:28:25.389Z,58.09
2019-03-26T04:29:33.457Z,58.15
2019-03-26T04:30:41.681Z,58.29
2019-03-26T04:31:49.669Z,58.29
2019-03-26T04:32:57.714Z,58.22
2019-03-26T04:34:05.655Z,58.18
2019-03-26T04:35:13.878Z,58.19
2019-03-26T04:36:25.899Z,58.27
2019-03-26T04:37:31.380Z,58.14
2019-03-26T04:38:39.384Z,58.23
2019-03-26T04:39:47.972Z,58.07
2019-03-26T04:40:56.025Z,58.14
2019-03-26T04:42:04.069Z,58.05
2019-03-26T04:43:11.990Z,58.05
2019-03-26T04:44:19.970Z,58.01
2019-03-26T04:45:27.953Z,58.09
2019-03-26T04:46:35.960Z,58.24
2019-03-26T04:47:43.928Z,58.40
2019-03-26T04:48:51.921Z,58.33
2019-03-26T04:50:00.540Z,58.41
2019-03-26T04:51:08.436Z,58.47
2019-03-26T04:52:16.326Z,58.44
2019-03-26T04:53:24.276Z,58.26
2019-03-26T04:54:32.114Z,58.23
2019-03-26T04:55:40.044Z,58.20
2019-03-26T04:56:48.136Z,58.12
2019-03-26T04:57:56.631Z,58.15
2019-03-26T04:59:04.496Z,58.09
2019-03-26T05:00:13.033Z,58.11
2019-03-26T05:01:21.145Z,58.08
2019-03-26T05:02:29.090Z,58.16
2019-03-26T05:03:37.339Z,58.20
2019-03-26T05:04:45.043Z,58.21
2019-03-26T05:05:52.877Z,58.26
2019-03-26T05:07:01.319Z,58.40
2019-03-26T05:08:09.064Z,58.32
2019-03-26T05:09:16.848Z,58.42
2019-03-26T05:10:24.852Z,58.61
2019-03-26T05:11:32.600Z,58.76
2019-03-26T05:12:40.676Z,58.90
2019-03-26T05:13:48.521Z,58.90
2019-03-26T05:14:56.262Z,58.96
2019-03-26T05:16:04.610Z,59.09
2019-03-26T05:17:12.429Z,59.15
2019-03-26T05:18:20.243Z,59.21
2019-03-26T05:19:28.013Z,59.24
2019-03-26T05:20:36.035Z,59.20
2019-03-26T05:21:43.930Z,59.25
2019-03-26T05:22:51.718Z,59.27
2019-03-26T05:23:59.958Z,59.14
2019-03-26T05:25:08.782Z,59.27
2019-03-26T05:26:16.676Z,59.27
2019-03-26T05:27:24.548Z,59.24
2019-03-26T05:28:32.310Z,59.38
2019-03-26T05:29:40.080Z,59.52
2019-03-26T05:30:48.028Z,59.25
2019-03-26T05:31:57.394Z,59.33
2019-03-26T05:33:05.959Z,59.17
2019-03-26T05:34:13.874Z,59.22
2019-03-26T05:35:21.699Z,59.30
2019-03-26T05:36:29.678Z,59.18
2019-03-26T05:37:37.625Z,59.33
2019-03-26T05:38:45.738Z,59.41
2019-03-26T05:39:53.512Z,59.49
2019-03-26T05:41:01.404Z,59.51
2019-03-26T05:42:09.358Z,59.52
2019-03-26T05:43:17.129Z,59.38
2019-03-26T05:44:24.998Z,59.54
2019-03-26T05:45:32.756Z,59.52
2019-03-26T05:46:40.572Z,59.46
2019-03-26T05:47:48.348Z,59.49
2019-03-26T05:48:56.250Z,59.46
2019-03-26T05:50:07.784Z,59.47
2019-03-26T05:51:15.852Z,59.15
2019-03-26T05:52:23.649Z,58.83
2019-03-26T05:53:31.408Z,58.65
2019-03-26T05:54:39.218Z,58.80
2019-03-26T05:55:47.005Z,58.81
2019-03-26T05:56:54.744Z,58.83
2019-03-26T05:58:02.885Z,58.86
2019-03-26T05:59:10.802Z,58.80
2019-03-26T06:00:21.857Z,58.87
2019-03-26T06:01:29.916Z,58.95
2019-03-26T06:02:38.006Z,58.86
2019-03-26T06:03:45.937Z,58.41
2019-03-26T06:04:54.034Z,58.17
2019-03-26T06:06:02.763Z,58.08
2019-03-26T06:07:10.713Z,58.11
2019-03-26T06:08:18.690Z,58.08
2019-03-26T06:09:26.964Z,57.77
2019-03-26T06:10:34.833Z,57.72
2019-03-26T06:11:42.659Z,57.35
2019-03-26T06:12:50.513Z,57.23
2019-03-26T06:13:58.369Z,57.02
2019-03-26T06:15:09.415Z,56.49
2019-03-26T06:16:17.572Z,56.69
2019-03-26T06:17:25.627Z,57.08
2019-03-26T06:18:33.504Z,56.96
2019-03-26T06:19:41.242Z,57.03
2019-03-26T06:20:49.080Z,56.91
2019-03-26T06:21:57.425Z,56.70
2019-03-26T06:23:05.162Z,56.46
2019-03-26T06:24:13.206Z,56.71
2019-03-26T06:25:21.132Z,56.11
2019-03-26T06:26:29.066Z,55.93
2019-03-26T06:27:37.035Z,56.29
2019-03-26T06:28:44.787Z,56.56
2019-03-26T06:29:52.671Z,56.64
2019-03-26T06:31:00.866Z,56.47
2019-03-26T06:32:08.825Z,55.90
2019-03-26T06:33:16.828Z,55.64
2019-03-26T06:34:24.956Z,55.58
2019-03-26T06:35:33.054Z,55.56
2019-03-26T06:36:41.046Z,55.51
2019-03-26T06:37:49.238Z,55.53
2019-03-26T06:38:57.646Z,55.35
2019-03-26T06:40:09.966Z,55.14
2019-03-26T06:41:18.262Z,55.47
2019-03-26T06:42:26.746Z,55.27
2019-03-26T06:43:35.069Z,54.28
2019-03-26T06:44:43.045Z,53.72
2019-03-26T06:45:51.144Z,53.74
2019-03-26T06:46:59.485Z,54.35
2019-03-26T06:48:07.953Z,54.27
2019-03-26T06:49:16.122Z,54.20
2019-03-26T06:50:24.290Z,54.54
2019-03-26T06:51:32.111Z,54.60
2019-03-26T06:52:40.264Z,54.22
2019-03-26T06:53:48.374Z,53.89
2019-03-26T06:54:56.577Z,53.86
2019-03-26T06:56:04.795Z,53.90
2019-03-26T06:57:12.845Z,53.94
2019-03-26T06:58:21.026Z,54.18
2019-03-26T06:59:29.330Z,54.28
2019-03-26T07:00:37.543Z,53.59
2019-03-26T07:01:45.866Z,53.52
2019-03-26T07:02:54.023Z,53.90
2019-03-26T07:04:02.661Z,53.95
2019-03-26T07:05:12.059Z,53.94
2019-03-26T07:06:19.999Z,54.26
2019-03-26T07:07:31.782Z,54.55
2019-03-26T07:08:37.532Z,54.58
2019-03-26T07:09:45.488Z,54.04
2019-03-26T07:10:53.380Z,54.39
2019-03-26T07:12:01.396Z,53.65
2019-03-26T07:13:09.498Z,53.62
2019-03-26T07:14:17.444Z,53.48
2019-03-26T07:15:25.200Z,53.04
2019-03-26T07:16:33.131Z,52.57
2019-03-26T07:17:41.181Z,52.35
2019-03-26T07:18:49.249Z,52.53
2019-03-26T07:19:57.052Z,52.38
2019-03-26T07:21:05.496Z,51.86
2019-03-26T07:22:13.419Z,51.83
2019-03-26T07:23:21.422Z,51.75
2019-03-26T07:24:29.361Z,51.49
2019-03-26T07:25:37.398Z,51.42
2019-03-26T07:26:45.320Z,51.21
2019-03-26T07:27:53.160Z,50.82
2019-03-26T07:29:01.075Z,50.73
2019-03-26T07:30:11.842Z,50.91
2019-03-26T07:31:19.960Z,50.96
2019-03-26T07:32:28.073Z,51.34
2019-03-26T07:33:36.019Z,50.97
2019-03-26T07:34:44.026Z,51.17
2019-03-26T07:35:52.161Z,50.81
2019-03-26T07:36:59.862Z,50.69
2019-03-26T07:38:08.565Z,50.05
2019-03-26T07:39:16.470Z,49.87
2019-03-26T07:40:24.324Z,50.13
2019-03-26T07:41:32.048Z,50.43
2019-03-26T07:42:39.804Z,50.50
2019-03-26T07:43:47.540Z,48.88
2019-03-26T07:44:55.236Z,49.16
2019-03-26T07:46:03.536Z,48.87
2019-03-26T07:47:11.839Z,48.94
2019-03-26T07:48:20.052Z,49.18
2019-03-26T07:49:27.912Z,48.76
2019-03-26T07:50:35.781Z,47.99
2019-03-26T07:51:43.729Z,47.47
2019-03-26T07:52:51.821Z,47.45
2019-03-26T07:54:00.021Z,47.72
2019-03-26T07:55:09.435Z,47.67
2019-03-26T07:56:17.473Z,47.54
2019-03-26T07:57:25.600Z,47.73
2019-03-26T07:58:33.566Z,46.84
2019-03-26T07:59:41.522Z,46.41
2019-03-26T08:00:49.336Z,46.32
2019-03-26T08:01:57.259Z,46.51
2019-03-26T08:03:05.959Z,46.46
2019-03-26T08:04:14.191Z,45.97
2019-03-26T08:05:29.583Z,46.05
2019-03-26T08:06:31.705Z,45.92
2019-03-26T08:07:40.090Z,45.71
2019-03-26T08:08:48.178Z,45.78
2019-03-26T08:09:55.998Z,46.25
2019-03-26T08:11:03.862Z,46.96
2019-03-26T08:12:12.070Z,47.06
2019-03-26T08:13:20.066Z,47.19
2019-03-26T08:14:28.392Z,46.11
2019-03-26T08:15:36.569Z,45.84
2019-03-26T08:16:44.465Z,45.00
2019-03-26T08:17:52.544Z,44.82
2019-03-26T08:19:02.587Z,45.32
2019-03-26T08:20:12.597Z,45.91
2019-03-26T08:21:20.658Z,45.75
2019-03-26T08:22:30.476Z,45.04
2019-03-26T08:23:38.771Z,45.27
2019-03-26T08:24:46.761Z,45.44
2019-03-26T08:25:54.848Z,44.08
2019-03-26T08:27:02.635Z,43.36
2019-03-26T08:28:10.750Z,43.18
2019-03-26T08:29:18.837Z,43.20
2019-03-26T08:30:26.797Z,43.53
2019-03-26T08:31:34.806Z,43.89
2019-03-26T08:32:42.824Z,43.71
2019-03-26T08:33:50.566Z,42.84
2019-03-26T08:34:58.710Z,43.14
2019-03-26T08:36:06.843Z,43.65
2019-03-26T08:37:14.888Z,42.75
2019-03-26T08:38:22.883Z,42.58
2019-03-26T08:39:31.040Z,42.96
2019-03-26T08:40:39.297Z,43.32
2019-03-26T08:41:47.343Z,43.93
2019-03-26T08:42:55.279Z,42.76
2019-03-26T08:44:03.378Z,42.59
2019-03-26T08:45:11.941Z,41.66
2019-03-26T08:46:19.937Z,41.15
2019-03-26T08:47:28.062Z,41.30
2019-03-26T08:48:35.855Z,41.62
2019-03-26T08:49:44.107Z,42.46
2019-03-26T08:50:52.563Z,42.81
2019-03-26T08:52:00.670Z,42.28
2019-03-26T08:53:08.927Z,42.52
2019-03-26T08:54:17.479Z,41.83
2019-03-26T08:55:25.579Z,41.29
2019-03-26T08:56:33.766Z,41.08
2019-03-26T08:57:41.802Z,40.87
2019-03-26T08:58:50.091Z,40.81
2019-03-26T08:59:58.049Z,40.70
2019-03-26T09:01:06.150Z,40.44
2019-03-26T09:02:14.832Z,40.71
2019-03-26T09:03:22.698Z,40.78
2019-03-26T09:04:30.795Z,40.99
2019-03-26T09:05:38.910Z,40.50
2019-03-26T09:06:46.942Z,40.42
2019-03-26T09:07:54.982Z,40.10
2019-03-26T09:09:02.942Z,39.48
2019-03-26T09:10:13.205Z,39.43
2019-03-26T09:11:21.479Z,38.75
2019-03-26T09:12:29.508Z,39.11
2019-03-26T09:13:37.499Z,38.74
2019-03-26T09:14:45.512Z,38.00
2019-03-26T09:15:53.565Z,38.29
2019-03-26T09:17:01.780Z,38.35
2019-03-26T09:18:10.528Z,38.45
2019-03-26T09:19:18.555Z,38.48
2019-03-26T09:20:26.465Z,38.37
2019-03-26T09:21:34.402Z,38.71
2019-03-26T09:22:42.271Z,39.11
2019-03-26T09:23:50.344Z,38.95
2019-03-26T09:24:58.236Z,39.00
2019-03-26T09:26:06.242Z,38.37
2019-03-26T09:27:14.638Z,38.19
2019-03-26T09:28:22.642Z,38.35
2019-03-26T09:29:30.795Z,38.50
2019-03-26T09:30:38.966Z,39.36
2019-03-26T09:31:46.819Z,39.28
2019-03-26T09:32:55.115Z,39.04
2019-03-26T09:34:03.443Z,38.39
2019-03-26T09:35:12.382Z,38.70
2019-03-26T09:36:20.450Z,38.55
2019-03-26T09:37:28.443Z,38.82
2019-03-26T09:38:39.282Z,39.09
2019-03-26T09:39:46.053Z,39.17
2019-03-26T09:40:53.960Z,39.31
2019-03-26T09:42:02.130Z,39.60
2019-03-26T09:43:10.139Z,39.92
2019-03-26T09:44:18.231Z,40.31
2019-03-26T09:45:26.471Z,40.01
2019-03-26T09:46:34.541Z,39.88
2019-03-26T09:47:42.688Z,38.74
2019-03-26T09:48:50.516Z,38.85
2019-03-26T09:49:58.465Z,39.03
2019-03-26T09:51:06.441Z,38.38
2019-03-26T09:52:14.436Z,38.69
2019-03-26T09:53:23.772Z,38.96
2019-03-26T09:54:32.130Z,39.11
2019-03-26T09:55:40.346Z,39.33
2019-03-26T09:56:48.523Z,39.33
2019-03-26T09:57:56.579Z,39.87
2019-03-26T09:59:04.741Z,40.14
2019-03-26T10:00:13.994Z,40.65
2019-03-26T10:01:22.027Z,40.21
2019-03-26T10:02:30.004Z,40.64
2019-03-26T10:03:37.967Z,40.60
2019-03-26T10:04:46.055Z,40.42
2019-03-26T10:05:54.037Z,40.97
2019-03-26T10:07:01.834Z,41.15
2019-03-26T10:08:10.074Z,40.00
2019-03-26T10:09:18.058Z,39.30
2019-03-26T10:10:26.130Z,38.53
2019-03-26T10:11:34.182Z,38.63
2019-03-26T10:12:42.256Z,38.90
2019-03-26T10:13:50.166Z,39.08
2019-03-26T10:14:58.281Z,39.43
2019-03-26T10:16:06.306Z,39.01
2019-03-26T10:17:14.827Z,38.28
2019-03-26T10:18:22.934Z,38.59
2019-03-26T10:19:31.201Z,38.33
2019-03-26T10:20:39.311Z,38.73
2019-03-26T10:21:47.408Z,39.08
2019-03-26T10:22:55.534Z,39.43
2019-03-26T10:24:03.806Z,39.66
2019-03-26T10:25:11.980Z,39.49
2019-03-26T10:26:20.317Z,39.51
2019-03-26T10:27:28.468Z,39.67
2019-03-26T10:28:36.378Z,39.65
2019-03-26T10:29:44.253Z,40.15
2019-03-26T10:30:52.488Z,40.09
2019-03-26T10:32:00.581Z,40.49
2019-03-26T10:33:09.297Z,40.26
2019-03-26T10:34:17.464Z,40.18
2019-03-26T10:35:25.783Z,40.36
2019-03-26T10:36:34.201Z,41.21
2019-03-26T10:37:42.278Z,40.55
2019-03-26T10:39:05.104Z,40.45
2019-03-26T10:40:04.035Z,40.24
2019-03-26T10:41:11.805Z,40.14
2019-03-26T10:42:19.989Z,40.60
2019-03-26T10:43:28.037Z,40.74
2019-03-26T10:44:36.099Z,41.10
2019-03-26T10:45:44.342Z,41.20
2019-03-26T10:46:52.293Z,42.43
2019-03-26T10:48:00.328Z,43.65
2019-03-26T10:49:08.366Z,41.61
2019-03-26T10:50:16.652Z,42.26
2019-03-26T10:51:24.781Z,40.07
2019-03-26T10:52:34.268Z,39.01
2019-03-26T10:53:42.359Z,39.07
2019-03-26T10:54:50.463Z,39.13
2019-03-26T10:55:58.379Z,38.85
2019-03-26T10:57:06.583Z,38.65
2019-03-26T10:58:14.680Z,37.54
2019-03-26T10:59:22.810Z,36.62
2019-03-26T11:00:30.977Z,35.60
2019-03-26T11:01:39.191Z,34.35
2019-03-26T11:02:47.340Z,35.09
2019-03-26T11:03:55.279Z,34.23
2019-03-26T11:05:03.319Z,33.97
2019-03-26T11:06:12.793Z,34.00
2019-03-26T11:07:21.094Z,33.79
2019-03-26T11:08:29.650Z,35.13
2019-03-26T11:09:38.011Z,35.85
2019-03-26T11:10:46.045Z,34.31
2019-03-26T11:11:53.993Z,33.72
2019-03-26T11:13:02.414Z,33.98
2019-03-26T11:14:10.619Z,33.69
2019-03-26T11:15:19.205Z,33.41
2019-03-26T11:16:27.248Z,34.15
2019-03-26T11:17:35.095Z,33.92
2019-03-26T11:18:43.079Z,34.62
2019-03-26T11:19:51.424Z,33.40
2019-03-26T11:21:03.306Z,33.79
2019-03-26T11:22:09.318Z,33.22
2019-03-26T11:23:17.427Z,33.00
2019-03-26T11:24:25.412Z,33.17
2019-03-26T11:25:33.363Z,35.24
2019-03-26T11:26:41.217Z,34.48
2019-03-26T11:27:49.319Z,34.40
2019-03-26T11:28:57.405Z,33.46
2019-03-26T11:30:08.411Z,31.70
2019-03-26T11:31:16.243Z,31.23
2019-03-26T11:32:24.328Z,31.44
2019-03-26T11:33:32.493Z,31.58
2019-03-26T11:34:40.270Z,32.00
2019-03-26T11:35:48.255Z,31.71
2019-03-26T11:36:56.170Z,31.03
2019-03-26T11:38:04.179Z,30.55
2019-03-26T11:39:12.248Z,31.21
2019-03-26T11:40:20.777Z,30.49
2019-03-26T11:41:29.343Z,30.25
2019-03-26T11:42:37.468Z,31.41
2019-03-26T11:43:45.545Z,31.45
2019-03-26T11:44:53.537Z,30.36
2019-03-26T11:46:01.520Z,30.37
2019-03-26T11:47:09.823Z,30.83
2019-03-26T11:48:17.741Z,30.72
2019-03-26T11:49:25.947Z,30.60
2019-03-26T11:50:34.185Z,30.87
2019-03-26T11:51:42.542Z,30.91
2019-03-26T11:52:50.840Z,31.53
2019-03-26T11:53:59.250Z,31.92
2019-03-26T11:55:09.795Z,32.18
2019-03-26T11:56:18.169Z,32.28
2019-03-26T11:57:26.210Z,32.13
2019-03-26T11:58:34.252Z,31.80
2019-03-26T11:59:42.798Z,32.28
2019-03-26T12:00:51.152Z,32.36
2019-03-26T12:01:59.602Z,33.10
2019-03-26T12:03:08.001Z,33.64
2019-03-26T12:04:15.905Z,34.43
2019-03-26T12:05:24.220Z,35.24
2019-03-26T12:06:32.056Z,34.33
2019-03-26T12:07:42.812Z,33.55
2019-03-26T12:08:50.125Z,32.90
2019-03-26T12:09:58.029Z,31.86
2019-03-26T12:11:06.200Z,30.54
2019-03-26T12:12:14.521Z,31.07
2019-03-26T12:13:23.001Z,30.24
2019-03-26T12:14:31.021Z,30.27
2019-03-26T12:15:39.254Z,30.79
2019-03-26T12:16:47.239Z,31.46
2019-03-26T12:17:55.527Z,31.73
2019-03-26T12:19:03.530Z,32.46
2019-03-26T12:20:11.918Z,32.68
2019-03-26T12:21:19.938Z,33.94
2019-03-26T12:22:31.293Z,33.59
2019-03-26T12:23:38.061Z,33.77
2019-03-26T12:24:46.213Z,33.75
2019-03-26T12:25:54.126Z,33.80
2019-03-26T12:27:02.770Z,32.72
2019-03-26T12:28:11.488Z,31.65
2019-03-26T12:29:19.866Z,31.71
2019-03-26T12:30:36.682Z,31.81
2019-03-26T12:31:44.778Z,32.14
2019-03-26T12:32:53.116Z,32.94
2019-03-26T12:34:01.630Z,32.66
2019-03-26T12:35:11.893Z,32.41
2019-03-26T12:36:20.012Z,30.60
2019-03-26T12:37:28.694Z,29.75
2019-03-26T12:38:36.648Z,30.54
2019-03-26T12:39:44.955Z,30.84
2019-03-26T12:40:53.265Z,30.39
2019-03-26T12:42:01.247Z,30.31
2019-03-26T12:43:09.421Z,29.56
2019-03-26T12:44:17.412Z,29.76
2019-03-26T12:45:26.026Z,29.68
2019-03-26T12:46:34.227Z,28.58
2019-03-26T12:47:42.462Z,28.79
2019-03-26T12:48:50.584Z,28.83
2019-03-26T12:49:58.511Z,28.36
2019-03-26T12:51:06.718Z,28.12
2019-03-26T12:52:14.789Z,27.52
2019-03-26T12:53:22.884Z,27.17
2019-03-26T12:54:31.073Z,26.89
2019-03-26T12:55:39.201Z,26.41
2019-03-26T12:56:47.299Z,26.32
2019-03-26T12:57:55.362Z,26.33
2019-03-26T12:59:03.273Z,26.54
2019-03-26T13:00:11.617Z,27.21
2019-03-26T13:01:19.667Z,27.65
2019-03-26T13:02:27.955Z,27.67
2019-03-26T13:03:36.107Z,28.22
2019-03-26T13:04:44.168Z,28.68
2019-03-26T13:05:52.378Z,28.54
2019-03-26T13:07:00.306Z,28.98
2019-03-26T13:08:08.364Z,29.01
2019-03-26T13:09:16.192Z,29.22
2019-03-26T13:10:24.187Z,29.52
2019-03-26T13:11:32.061Z,30.28
2019-03-26T13:12:39.999Z,30.24
2019-03-26T13:13:48.340Z,30.18
2019-03-26T13:14:59.253Z,30.74
2019-03-26T13:16:06.169Z,30.89
2019-03-26T13:17:14.187Z,31.41
2019-03-26T13:18:22.284Z,31.77
2019-03-26T13:19:30.802Z,31.98
2019-03-26T13:20:38.873Z,32.27
2019-03-26T13:21:46.778Z,32.57
2019-03-26T13:22:54.865Z,32.53
2019-03-26T13:24:03.062Z,33.15
2019-03-26T13:25:11.220Z,33.41
2019-03-26T13:26:19.356Z,33.33
2019-03-26T13:27:27.536Z,33.54
2019-03-26T13:28:35.583Z,34.03
2019-03-26T13:29:43.505Z,34.67
2019-03-26T13:30:51.547Z,34.99
2019-03-26T13:31:59.867Z,35.34
2019-03-26T13:33:07.935Z,35.53
2019-03-26T13:34:15.775Z,35.85
2019-03-26T13:35:23.784Z,36.09
2019-03-26T13:36:32.341Z,35.97
2019-03-26T13:37:40.265Z,36.27
2019-03-26T13:38:48.138Z,36.39
2019-03-26T13:39:55.998Z,36.57
2019-03-26T13:41:03.958Z,36.66
2019-03-26T13:42:12.098Z,36.73
2019-03-26T13:43:20.064Z,36.82
2019-03-26T13:44:27.999Z,37.04
2019-03-26T13:45:36.090Z,37.29
2019-03-26T13:46:44.479Z,37.14
2019-03-26T13:47:52.745Z,37.15
2019-03-26T13:49:00.581Z,37.14
2019-03-26T13:50:10.265Z,36.97
2019-03-26T13:51:18.298Z,37.05
2019-03-26T13:52:26.301Z,37.09
2019-03-26T13:53:34.450Z,37.36
2019-03-26T13:54:42.685Z,37.95
2019-03-26T13:55:50.578Z,38.55
2019-03-26T13:56:58.347Z,38.94
2019-03-26T13:58:06.682Z,39.30
2019-03-26T13:59:14.400Z,39.25
2019-03-26T14:00:34.363Z,39.34
2019-03-26T14:01:42.952Z,39.30
2019-03-26T14:02:50.866Z,39.26
2019-03-26T14:03:59.169Z,39.32
2019-03-26T14:05:25.728Z,39.29
2019-03-26T14:06:34.007Z,39.54
2019-03-26T14:07:41.973Z,39.00
2019-03-26T14:08:50.169Z,40.02
2019-03-26T14:09:58.197Z,39.36
2019-03-26T14:11:06.567Z,38.53
2019-03-26T14:12:14.639Z,37.72
2019-03-26T14:13:22.672Z,37.55
2019-03-26T14:14:30.725Z,37.76
2019-03-26T14:15:38.736Z,37.04
2019-03-26T14:16:46.961Z,36.41
2019-03-26T14:17:55.243Z,36.36
2019-03-26T14:19:03.212Z,36.04
2019-03-26T14:20:11.401Z,35.85
2019-03-26T14:21:19.755Z,35.29
2019-03-26T14:22:27.748Z,35.04
2019-03-26T14:23:36.071Z,34.47
2019-03-26T14:24:44.024Z,33.98
2019-03-26T14:25:51.817Z,33.74
2019-03-26T14:26:59.835Z,34.14
2019-03-26T14:28:08.033Z,34.16
2019-03-26T14:29:16.124Z,33.14
2019-03-26T14:30:42.681Z,31.87
2019-03-26T14:31:50.590Z,31.82
2019-03-26T14:32:58.891Z,30.50
2019-03-26T14:34:06.846Z,30.05
2019-03-26T14:35:15.040Z,30.80
2019-03-26T14:36:23.213Z,30.14
2019-03-26T14:37:31.426Z,29.67
2019-03-26T14:38:39.706Z,28.38
2019-03-26T14:39:47.720Z,28.30